Terminal Aerodrome Forecast
Issued by NWS Dodge City, KS

Home | Current Version | Previous Version | Text Only | Print | Product List | Glossary On
Versions: 1 2 3 4 5 6 7 8 9 10 11 12 13 14 15 16 17
000
FTUS43 KDDC 212335
TAFDDC
TAF
KDDC 212335Z 2200/2224 33014KT P6SM VCSH OVC018
     FM220100 33016G24KT P6SM VCSH OVC015
     FM220800 33030G44KT 5SM -SN OVC025
     FM221600 33029G38KT P6SM SCT040=

USA.gov is the U.S. government's official web portal to all federal, state and local government web resources and services.